createdAt,value
2022-12-29T00:04:14.666Z,6.402587890625
2022-12-29T00:14:10.521Z,5.2001953125
2022-12-29T00:24:10.465Z,5.0994873046875
2022-12-29T00:34:10.399Z,5.8013916015625
2022-12-29T00:44:10.296Z,5.0994873046875
2022-12-29T00:54:10.265Z,4.998779296875
2022-12-29T01:04:10.193Z,3.2989501953125
2022-12-29T01:14:10.122Z,9.4970703125
2022-12-29T01:24:10.003Z,5.2001953125
2022-12-29T01:34:09.946Z,6.89697265625
2022-12-29T01:44:09.987Z,5.999755859375
2022-12-29T01:54:09.792Z,4.19921875
2022-12-29T02:04:09.840Z,5.8990478515625
2022-12-29T02:14:09.671Z,6.201171875
2022-12-29T02:24:09.621Z,6.79931640625
2022-12-29T02:34:09.524Z,7.2998046875
2022-12-29T02:44:09.437Z,8.3984375
2022-12-29T02:54:09.362Z,8.001708984375
2022-12-29T03:04:09.395Z,9.600830078125
2022-12-29T03:14:09.213Z,8.502197265625
2022-12-29T03:24:09.112Z,8.099365234375
2022-12-29T03:34:09.037Z,5.999755859375
2022-12-29T03:36:56.091Z,9.600830078125
2022-12-29T03:46:55.567Z,8.697509765625
2022-12-29T03:56:55.576Z,7.3974609375
2022-12-29T04:06:55.402Z,6.298828125
2022-12-29T04:16:55.373Z,7.3974609375
2022-12-29T04:26:55.266Z,6.1004638671875
2022-12-29T04:36:55.409Z,5.8013916015625
2022-12-29T04:46:55.337Z,5.2001953125
2022-12-29T04:56:55.098Z,5.8990478515625
2022-12-29T05:06:55.014Z,5.8013916015625
2022-12-29T05:16:54.948Z,9.100341796875
2022-12-29T05:26:54.867Z,9.002685546875
2022-12-29T05:36:54.822Z,5.3985595703125
2022-12-29T05:46:54.797Z,5.999755859375
2022-12-29T05:56:54.657Z,5.0994873046875
2022-12-29T06:06:54.653Z,4.901123046875
2022-12-29T06:16:54.614Z,5.70068359375
2022-12-29T06:26:54.417Z,7.2021484375
2022-12-29T06:36:54.349Z,3.900146484375
2022-12-29T06:46:54.287Z,5.0994873046875
2022-12-29T06:56:54.198Z,6.1004638671875
2022-12-29T07:06:54.115Z,5.0994873046875
2022-12-29T07:16:54.196Z,5.3009033203125
2022-12-29T07:26:53.972Z,3.399658203125
2022-12-29T07:36:53.913Z,4.901123046875
2022-12-29T07:46:57.603Z,4.901123046875
2022-12-29T07:56:53.829Z,3.60107421875
2022-12-29T08:06:53.719Z,5.5999755859375
2022-12-29T08:16:53.618Z,5.0994873046875
2022-12-29T08:26:53.600Z,5.3985595703125
2022-12-29T08:36:53.488Z,5.8990478515625
2022-12-29T08:46:53.444Z,5.499267578125
2022-12-29T08:56:53.409Z,6.402587890625
2022-12-29T09:06:53.270Z,5.499267578125
2022-12-29T09:16:53.204Z,4.69970703125
2022-12-29T09:26:53.113Z,4.2999267578125
2022-12-29T09:36:53.120Z,7.80029296875
2022-12-29T09:46:53.200Z,9.002685546875
2022-12-29T09:56:52.899Z,6.500244140625
2022-12-29T10:07:27.487Z,8.599853515625
2022-12-29T10:16:52.948Z,6.402587890625
2022-12-29T10:26:52.753Z,4.0008544921875
2022-12-29T10:36:52.612Z,6.597900390625
2022-12-29T10:46:52.658Z,9.3017578125
2022-12-29T10:56:53.277Z,5.499267578125
2022-12-29T11:06:52.442Z,5.0994873046875
2022-12-29T11:16:52.374Z,8.89892578125
2022-12-29T11:26:52.285Z,6.500244140625
2022-12-29T11:36:52.230Z,5.3985595703125
2022-12-29T11:46:52.149Z,5.5999755859375
2022-12-29T11:56:52.090Z,5.0994873046875
2022-12-29T12:06:52.157Z,6.1004638671875
2022-12-29T12:16:51.961Z,6.79931640625
2022-12-29T12:26:51.855Z,6.298828125
2022-12-29T12:36:51.776Z,9.600830078125
2022-12-29T12:46:51.795Z,15.19775390625
2022-12-29T12:56:51.643Z,9.3017578125
2022-12-29T13:06:51.587Z,7.70263671875
2022-12-29T13:16:51.579Z,10.198974609375
2022-12-29T13:26:51.429Z,4.400634765625
2022-12-29T13:36:51.325Z,10.601806640625
2022-12-29T13:46:51.317Z,8.001708984375
2022-12-29T13:56:51.220Z,7.2998046875
2022-12-29T14:06:51.139Z,4.400634765625
2022-12-29T14:16:51.046Z,8.099365234375
2022-12-29T14:26:51.082Z,8.099365234375
2022-12-29T14:36:50.907Z,7.000732421875
2022-12-29T14:46:51.003Z,6.597900390625
2022-12-29T14:56:50.784Z,8.599853515625
2022-12-29T15:06:50.775Z,11.4990234375
2022-12-29T15:16:50.799Z,6.298828125
2022-12-29T15:26:50.543Z,9.600830078125
2022-12-29T15:36:50.462Z,7.3974609375
2022-12-29T15:46:50.421Z,9.3017578125
2022-12-29T15:56:50.347Z,7.70263671875
2022-12-29T16:06:50.249Z,8.3984375
2022-12-29T16:16:50.451Z,5.8013916015625
2022-12-29T16:26:50.124Z,4.69970703125
2022-12-29T16:36:50.069Z,5.8990478515625
2022-12-29T16:46:49.989Z,11.4013671875
2022-12-29T16:56:49.891Z,6.201171875
2022-12-29T17:06:49.815Z,6.79931640625
2022-12-29T17:16:49.809Z,5.499267578125
2022-12-29T17:26:49.684Z,9.3017578125
2022-12-29T17:36:49.616Z,4.5013427734375
2022-12-29T17:46:49.658Z,5.0994873046875
2022-12-29T17:56:49.565Z,6.79931640625
2022-12-29T18:06:49.392Z,5.8990478515625
2022-12-29T18:16:49.450Z,5.5999755859375
2022-12-29T18:26:49.272Z,11.297607421875
2022-12-29T18:36:49.248Z,12.90283203125
2022-12-29T18:46:49.316Z,7.501220703125
2022-12-29T18:56:49.039Z,8.697509765625
2022-12-29T19:06:48.965Z,12.40234375
2022-12-29T19:16:48.934Z,6.298828125
2022-12-29T19:26:48.857Z,6.89697265625
2022-12-29T19:36:48.782Z,6.402587890625
2022-12-29T19:46:48.728Z,5.8013916015625
2022-12-29T19:56:48.601Z,8.001708984375
2022-12-29T20:06:48.536Z,4.5989990234375
2022-12-29T20:17:09.602Z,9.3994140625
2022-12-29T20:26:48.404Z,20.10498046875
2022-12-29T20:36:48.312Z,25.390625
2022-12-29T20:46:48.320Z,25.7080078125
2022-12-29T20:56:48.179Z,25.09765625
2022-12-29T21:06:48.103Z,25.09765625
2022-12-29T21:16:48.119Z,32.91015625
2022-12-29T21:26:47.994Z,20.49560546875
2022-12-29T21:36:48.019Z,18.798828125
2022-12-29T21:46:47.869Z,17.10205078125
2022-12-29T22:06:48.021Z,19.29931640625
2022-12-29T22:16:47.622Z,19.7998046875
2022-12-29T22:26:47.532Z,19.39697265625
2022-12-29T22:36:47.606Z,17.00439453125
2022-12-29T22:46:47.540Z,15.19775390625
2022-12-29T22:56:47.321Z,14.09912109375
2022-12-29T23:06:47.362Z,13.6962890625
2022-12-29T23:16:47.185Z,11.297607421875
2022-12-29T23:26:47.116Z,12.298583984375
2022-12-29T23:36:47.070Z,11.798095703125
2022-12-29T23:46:47.078Z,16.19873046875
2022-12-29T23:56:46.936Z,10.302734375
